Time;durP1;ratioP1;P1;durP2;ratioP2;P2;SDS_P1;SDS_P2;PMS_P1;PMS_P2;Temp;Humidity;BMP_temperature;BMP_pressure;BME280_temperature;BME280_humidity;BME280_pressure;Samples;Min_cycle;Max_cycle;Signal;HPM_P1;HPM_P2
2021/12/07 00:01:47;;;;;;;9.93;6.67;;;1.90;99.90;;;;;;5035551;28;21070;-52
2021/12/07 00:04:15;;;;;;;9.47;5.60;;;1.90;99.90;;;;;;5036035;28;20607;-52
2021/12/07 00:06:42;;;;;;;7.83;6.00;;;1.90;99.90;;;;;;5031833;28;20281;-52
2021/12/07 00:09:12;;;;;;;9.97;6.37;;;1.90;99.90;;;;;;5038124;28;20272;-53
2021/12/07 00:11:39;;;;;;;8.67;5.63;;;1.90;99.90;;;;;;5037717;28;20576;-53
2021/12/07 00:14:12;;;;;;;9.37;6.10;;;1.80;99.90;;;;;;5037482;28;20236;-54
2021/12/07 00:16:41;;;;;;;9.87;6.23;;;1.80;99.90;;;;;;5034960;28;20214;-52
2021/12/07 00:19:09;;;;;;;8.40;6.63;;;1.80;99.90;;;;;;5036947;28;20236;-54
2021/12/07 00:21:39;;;;;;;8.77;6.27;;;1.70;99.90;;;;;;5036432;28;20271;-52
2021/12/07 00:24:07;;;;;;;10.03;6.77;;;1.80;99.90;;;;;;5038040;28;20258;-53
2021/12/07 00:26:38;;;;;;;10.23;6.83;;;1.70;99.90;;;;;;5037207;28;20195;-54
2021/12/07 00:29:06;;;;;;;9.47;6.30;;;1.70;99.90;;;;;;5035679;28;20339;-52
2021/12/07 00:31:40;;;;;;;9.17;6.27;;;1.80;99.90;;;;;;5038769;28;20626;-51
2021/12/07 00:34:39;;;;;;;10.10;6.70;;;1.90;99.90;;;;;;5037605;28;20206;-53
2021/12/07 00:36:57;;;;;;;12.43;7.53;;;1.90;99.90;;;;;;5033597;28;20289;-53
2021/12/07 00:39:25;;;;;;;12.70;7.10;;;1.90;99.90;;;;;;5038162;28;20714;-52
2021/12/07 00:41:54;;;;;;;9.50;7.00;;;2.00;99.90;;;;;;5035765;28;20295;-53
2021/12/07 00:44:23;;;;;;;10.37;7.53;;;2.00;99.90;;;;;;5035720;28;20363;-52
2021/12/07 00:46:50;;;;;;;10.97;7.47;;;2.10;99.90;;;;;;5034622;28;20206;-52
2021/12/07 00:49:17;;;;;;;8.63;6.80;;;2.20;99.90;;;;;;5025371;28;20201;-53
2021/12/07 00:51:44;;;;;;;10.20;7.17;;;2.30;99.90;;;;;;5034985;28;20235;-54
2021/12/07 00:54:12;;;;;;;9.93;7.43;;;2.30;99.90;;;;;;5036853;28;20199;-53
2021/12/07 00:56:39;;;;;;;14.10;8.67;;;2.40;99.90;;;;;;5036485;28;20250;-53
2021/12/07 00:59:06;;;;;;;16.33;8.43;;;2.60;99.90;;;;;;5036101;28;20277;-52
2021/12/07 01:01:34;;;;;;;14.97;7.90;;;2.60;99.90;;;;;;5035564;28;20230;-53
2021/12/07 01:04:02;;;;;;;13.30;7.80;;;2.60;99.90;;;;;;5036827;28;20203;-53
2021/12/07 01:06:44;;;;;;;13.33;7.97;;;2.60;99.90;;;;;;5018920;28;20199;-54
2021/12/07 01:24:40;;;;;;;11.23;7.53;;;2.90;99.90;;;;;;5033539;28;20243;-54
2021/12/07 01:25:55;;;;;;;15.43;7.07;;;3.20;99.90;;;;;;5037981;28;20682;-53
2021/12/07 01:28:30;;;;;;;14.70;6.60;;;3.30;99.90;;;;;;5035525;28;20210;-53
2021/12/07 01:50:03;;;;;;;10.90;4.57;;;3.60;99.90;;;;;;5036578;28;20254;-53
2021/12/07 02:00:20;;;;;;;13.97;6.33;;;3.60;99.90;;;;;;5032926;28;20238;-53
2021/12/07 02:02:47;;;;;;;14.03;5.10;;;3.60;99.90;;;;;;5017822;28;20250;-52
2021/12/07 02:05:14;;;;;;;11.80;6.50;;;3.60;99.90;;;;;;5034097;28;21110;-54
2021/12/07 02:07:41;;;;;;;9.43;5.67;;;3.60;99.90;;;;;;5032380;28;20206;-54
2021/12/07 02:10:14;;;;;;;16.10;5.93;;;3.60;99.90;;;;;;5034102;28;20291;-54
2021/12/07 02:12:47;;;;;;;11.37;4.77;;;3.70;99.90;;;;;;5038572;28;20223;-54
2021/12/07 02:15:24;;;;;;;14.87;5.93;;;3.60;99.90;;;;;;5039517;28;20230;-52
2021/12/07 02:17:52;;;;;;;20.20;4.80;;;3.60;99.90;;;;;;5039613;28;20239;-53
2021/12/07 02:20:23;;;;;;;10.03;4.27;;;3.70;99.90;;;;;;5021141;28;20274;-53
2021/12/07 02:22:51;;;;;;;15.13;5.10;;;3.70;99.90;;;;;;5039496;28;22391;-54
2021/12/07 02:25:18;;;;;;;8.93;3.73;;;3.80;99.90;;;;;;5040347;28;20207;-53
2021/12/07 02:27:48;;;;;;;10.07;3.73;;;3.90;99.90;;;;;;5039766;28;20200;-53
2021/12/07 02:30:19;;;;;;;9.47;4.23;;;4.00;99.90;;;;;;5036508;28;20215;-53
2021/12/07 02:32:51;;;;;;;7.23;2.90;;;3.90;99.90;;;;;;5038893;28;20267;-53
2021/12/07 02:35:25;;;;;;;9.00;3.03;;;4.00;99.90;;;;;;5039419;28;20952;-54
2021/12/07 02:37:54;;;;;;;11.07;3.00;;;4.00;99.90;;;;;;5040407;28;20226;-53
2021/12/07 02:40:21;;;;;;;7.57;2.60;;;4.00;99.90;;;;;;5039411;28;20273;-54
2021/12/07 02:42:48;;;;;;;7.07;2.60;;;4.00;99.90;;;;;;5039898;28;20274;-53
2021/12/07 02:45:17;;;;;;;9.60;2.67;;;4.10;99.90;;;;;;5038225;28;20617;-52
2021/12/07 02:47:45;;;;;;;9.97;2.70;;;4.10;99.90;;;;;;5039223;28;20216;-52
2021/12/07 02:50:13;;;;;;;11.67;2.10;;;4.00;99.90;;;;;;5038721;28;20578;-53
2021/12/07 02:52:39;;;;;;;13.00;2.20;;;4.10;99.90;;;;;;5037839;28;20260;-54
2021/12/07 02:55:08;;;;;;;8.07;2.00;;;4.10;99.90;;;;;;5039447;28;20663;-52
2021/12/07 02:57:35;;;;;;;5.43;2.03;;;4.00;99.90;;;;;;5039710;28;20262;-54
2021/12/07 03:00:12;;;;;;;8.23;2.70;;;3.90;99.90;;;;;;5037783;28;20208;-54
2021/12/07 03:02:46;;;;;;;13.27;2.30;;;3.90;99.90;;;;;;5040187;28;20664;-54
2021/12/07 03:27:06;;;;;;;11.37;1.83;;;3.90;99.90;;;;;;5038224;28;20934;-54
2021/12/07 03:29:33;;;;;;;7.40;1.90;;;3.80;99.90;;;;;;5038396;28;20204;-52
2021/12/07 03:32:00;;;;;;;7.27;1.97;;;3.90;99.90;;;;;;5037737;28;20250;-54
2021/12/07 03:34:27;;;;;;;7.53;1.77;;;3.90;99.90;;;;;;5038914;28;20218;-52
2021/12/07 03:36:54;;;;;;;11.03;2.13;;;3.90;99.90;;;;;;5035437;28;20307;-51
2021/12/07 03:39:21;;;;;;;9.27;2.53;;;3.70;99.90;;;;;;5039730;28;20628;-54
2021/12/07 03:41:48;;;;;;;11.27;2.43;;;3.70;99.90;;;;;;5020827;28;20289;-53
2021/12/07 03:44:15;;;;;;;7.53;2.40;;;3.70;99.90;;;;;;5037409;28;20227;-51
2021/12/07 03:46:42;;;;;;;11.33;2.07;;;3.70;99.90;;;;;;5037052;28;20245;-53
2021/12/07 03:49:10;;;;;;;9.10;2.00;;;3.80;99.90;;;;;;5038827;28;20276;-52
2021/12/07 03:51:37;;;;;;;11.90;2.47;;;3.80;99.90;;;;;;5036468;28;20333;-53
2021/12/07 03:54:05;;;;;;;6.47;1.83;;;3.80;99.90;;;;;;5037976;28;20273;-54
2021/12/07 03:56:32;;;;;;;10.47;1.83;;;3.80;99.90;;;;;;5038060;28;20217;-53
2021/12/07 03:58:59;;;;;;;8.13;1.63;;;3.80;99.90;;;;;;5039480;28;20266;-52
2021/12/07 04:01:26;;;;;;;7.87;1.70;;;3.80;99.90;;;;;;5038224;28;20568;-53
2021/12/07 04:03:54;;;;;;;6.73;1.87;;;3.60;99.90;;;;;;5040657;28;20195;-54
2021/12/07 04:06:22;;;;;;;10.23;2.03;;;3.70;99.90;;;;;;5033177;28;20593;-54
2021/12/07 04:08:49;;;;;;;7.50;1.90;;;3.80;99.90;;;;;;5037225;28;20265;-53
2021/12/07 04:11:16;;;;;;;10.13;2.10;;;3.70;99.90;;;;;;5036618;28;20204;-54
2021/12/07 04:13:45;;;;;;;13.90;2.50;;;3.70;99.90;;;;;;5039033;28;20666;-53
2021/12/07 04:16:14;;;;;;;6.80;1.80;;;3.80;99.90;;;;;;5036409;28;20215;-54
2021/12/07 04:18:41;;;;;;;12.40;2.97;;;3.80;99.90;;;;;;5037948;28;20208;-52
2021/12/07 04:21:08;;;;;;;10.23;1.63;;;3.70;99.90;;;;;;5037152;28;20279;-52
2021/12/07 04:23:36;;;;;;;4.63;1.80;;;3.80;99.90;;;;;;5039089;28;20787;-51
2021/12/07 04:26:07;;;;;;;8.70;2.10;;;3.70;99.90;;;;;;5038114;28;20208;-53
2021/12/07 04:28:34;;;;;;;10.23;2.07;;;3.70;99.90;;;;;;5036772;28;20648;-54
2021/12/07 04:31:02;;;;;;;5.37;1.67;;;3.60;99.90;;;;;;5036296;28;20208;-53
2021/12/07 04:33:29;;;;;;;9.47;2.43;;;3.70;99.90;;;;;;5038008;28;20240;-54
2021/12/07 04:35:58;;;;;;;8.33;1.90;;;3.70;99.90;;;;;;5036069;28;20271;-52
2021/12/07 04:38:25;;;;;;;13.07;2.03;;;3.80;99.90;;;;;;5038080;28;20212;-53
2021/12/07 04:40:53;;;;;;;6.23;1.60;;;3.70;99.90;;;;;;5036158;28;20220;-53
2021/12/07 04:43:20;;;;;;;4.13;1.60;;;3.70;99.90;;;;;;5036804;28;20211;-54
2021/12/07 04:45:57;;;;;;;10.23;2.03;;;3.70;99.90;;;;;;5037386;28;20212;-54
2021/12/07 04:59:34;;;;;;;11.63;2.17;;;3.70;99.90;;;;;;5034671;28;20622;-54
2021/12/07 05:02:01;;;;;;;5.03;1.80;;;3.60;99.90;;;;;;5036907;28;20210;-53
2021/12/07 05:04:31;;;;;;;8.10;1.87;;;3.70;99.90;;;;;;5037443;28;20208;-53
2021/12/07 05:12:45;;;;;;;6.27;1.87;;;3.60;99.90;;;;;;5038165;28;20357;-53
2021/12/07 05:15:32;;;;;;;11.23;1.90;;;3.80;99.90;;;;;;5035850;28;20242;-55
2021/12/07 05:18:09;;;;;;;11.80;2.20;;;3.80;99.90;;;;;;5034759;28;20240;-53
2021/12/07 05:39:41;;;;;;;4.83;1.90;;;3.60;99.90;;;;;;5036507;28;20303;-54
2021/12/07 05:42:08;;;;;;;13.90;2.23;;;3.60;99.90;;;;;;5036269;28;20216;-52
2021/12/07 05:44:35;;;;;;;7.57;1.63;;;3.60;99.90;;;;;;5034702;28;20223;-52
2021/12/07 05:47:03;;;;;;;6.27;1.67;;;3.60;99.90;;;;;;5036215;28;20217;-53
2021/12/07 05:49:31;;;;;;;8.07;1.60;;;3.70;99.90;;;;;;5035190;28;20510;-53
2021/12/07 05:51:57;;;;;;;7.67;1.70;;;3.70;99.90;;;;;;5033079;28;20255;-52
2021/12/07 05:54:24;;;;;;;11.77;1.67;;;3.70;99.90;;;;;;5036362;28;20218;-53
2021/12/07 05:56:51;;;;;;;10.77;1.73;;;3.70;99.90;;;;;;5038363;28;20710;-53
2021/12/07 05:59:18;;;;;;;3.57;1.50;;;3.70;99.90;;;;;;5017880;28;20223;-53
2021/12/07 06:01:45;;;;;;;11.33;1.90;;;3.80;99.90;;;;;;5035982;28;20192;-53
2021/12/07 06:04:12;;;;;;;8.63;1.30;;;3.80;99.90;;;;;;5030430;28;20208;-53
2021/12/07 06:06:39;;;;;;;5.93;1.53;;;3.80;99.90;;;;;;5031740;28;20272;-53
2021/12/07 06:09:06;;;;;;;9.23;2.47;;;3.80;99.90;;;;;;5034209;28;20226;-51
2021/12/07 06:11:33;;;;;;;8.23;1.87;;;3.80;99.90;;;;;;5036303;28;20250;-53
2021/12/07 06:14:00;;;;;;;10.30;1.77;;;3.80;99.90;;;;;;5035605;28;20288;-54
2021/12/07 06:16:30;;;;;;;9.30;2.00;;;3.80;99.90;;;;;;5033835;28;20214;-53
2021/12/07 06:18:58;;;;;;;11.13;1.90;;;3.80;99.90;;;;;;5035430;28;20199;-54
2021/12/07 06:21:29;;;;;;;10.70;2.73;;;3.90;99.90;;;;;;5034807;28;20266;-52
2021/12/07 06:23:56;;;;;;;8.53;1.80;;;3.90;99.90;;;;;;5035644;28;20283;-56
2021/12/07 06:26:23;;;;;;;9.33;1.60;;;3.80;99.90;;;;;;5034738;28;20398;-54
2021/12/07 06:28:49;;;;;;;9.77;1.50;;;3.80;99.90;;;;;;5030789;28;20671;-54
2021/12/07 06:31:16;;;;;;;5.00;1.77;;;3.70;99.90;;;;;;5034116;28;20208;-54
2021/12/07 06:33:43;;;;;;;7.23;1.70;;;3.60;99.90;;;;;;5035876;28;20242;-53
2021/12/07 06:36:11;;;;;;;4.73;1.70;;;3.50;99.90;;;;;;5035028;28;20204;-53
2021/12/07 06:38:37;;;;;;;8.47;1.60;;;3.50;99.90;;;;;;5034799;28;20209;-53
2021/12/07 06:41:05;;;;;;;8.50;2.07;;;3.40;99.90;;;;;;5035636;28;20638;-55
2021/12/07 06:43:32;;;;;;;10.27;1.57;;;3.40;99.90;;;;;;5035930;28;20308;-53
2021/12/07 06:46:00;;;;;;;5.63;1.60;;;3.50;99.90;;;;;;5036979;28;20203;-53
2021/12/07 06:48:27;;;;;;;10.03;1.63;;;3.50;99.90;;;;;;5034914;28;20208;-53
2021/12/07 06:50:54;;;;;;;6.37;1.80;;;3.40;99.90;;;;;;5034354;28;20203;-52
2021/12/07 06:53:21;;;;;;;7.33;2.20;;;3.40;99.90;;;;;;5035894;28;20719;-53
2021/12/07 06:55:48;;;;;;;4.37;1.50;;;3.30;99.90;;;;;;5034858;28;20239;-52
2021/12/07 06:58:15;;;;;;;4.33;1.83;;;3.30;99.90;;;;;;5033955;28;20319;-54
2021/12/07 07:00:42;;;;;;;7.80;2.33;;;3.20;99.90;;;;;;5034796;28;20804;-53
2021/12/07 07:03:09;;;;;;;8.37;2.13;;;3.20;99.90;;;;;;5038449;28;20207;-53
2021/12/07 07:05:36;;;;;;;7.23;2.30;;;3.20;99.90;;;;;;5040280;28;21325;-53
2021/12/07 07:08:04;;;;;;;3.83;1.77;;;3.30;99.90;;;;;;5034864;28;20938;-52
2021/12/07 07:10:30;;;;;;;9.67;2.13;;;3.30;99.90;;;;;;5021771;28;20231;-53
2021/12/07 07:12:57;;;;;;;10.20;1.90;;;3.30;99.90;;;;;;5036631;28;20211;-53
2021/12/07 07:15:24;;;;;;;14.03;2.50;;;3.30;99.90;;;;;;5037293;28;20207;-52
2021/12/07 07:17:51;;;;;;;6.97;2.50;;;3.30;99.90;;;;;;5037722;28;20219;-53
2021/12/07 07:20:18;;;;;;;6.93;2.27;;;3.30;99.90;;;;;;5031067;28;20414;-51
2021/12/07 07:22:45;;;;;;;14.20;4.30;;;3.40;99.90;;;;;;5033571;28;20222;-53
2021/12/07 07:25:14;;;;;;;97.77;40.23;;;3.30;99.90;;;;;;5020244;28;20204;-53
2021/12/07 07:27:41;;;;;;;15.90;4.30;;;3.40;99.90;;;;;;5033164;28;20687;-53
2021/12/07 07:30:10;;;;;;;12.67;3.60;;;3.40;99.90;;;;;;5034359;28;20231;-52
2021/12/07 07:32:38;;;;;;;9.73;3.50;;;3.60;99.90;;;;;;5038730;28;20287;-53
2021/12/07 07:35:07;;;;;;;11.13;3.40;;;3.50;99.90;;;;;;5035265;28;20207;-53
2021/12/07 07:37:34;;;;;;;12.43;3.60;;;3.60;99.90;;;;;;5034553;28;20870;-53
2021/12/07 07:40:02;;;;;;;11.10;3.90;;;3.70;99.90;;;;;;5036885;28;20248;-53
2021/12/07 07:42:33;;;;;;;13.93;3.70;;;3.70;99.90;;;;;;5038241;28;20345;-53
2021/12/07 07:45:00;;;;;;;12.83;3.70;;;3.60;99.90;;;;;;5038006;28;22115;-54
2021/12/07 07:47:27;;;;;;;15.13;4.13;;;3.60;99.90;;;;;;5037664;28;20210;-53
2021/12/07 07:49:53;;;;;;;12.97;4.00;;;3.50;99.90;;;;;;5040247;28;20522;-53
2021/12/07 07:52:20;;;;;;;13.03;4.17;;;3.70;99.90;;;;;;5038994;28;20766;-53
2021/12/07 07:54:47;;;;;;;16.07;4.93;;;3.60;99.90;;;;;;5040834;28;20211;-54
2021/12/07 07:57:14;;;;;;;38.50;15.90;;;3.70;99.90;;;;;;5037741;28;20335;-51
2021/12/07 07:59:41;;;;;;;21.70;10.37;;;3.80;99.90;;;;;;5040718;28;20274;-52
2021/12/07 08:02:08;;;;;;;28.57;9.77;;;3.80;99.90;;;;;;5037318;28;20285;-54
2021/12/07 08:04:35;;;;;;;19.57;5.30;;;3.80;99.90;;;;;;5040282;28;20208;-54
2021/12/07 08:07:03;;;;;;;16.03;5.50;;;3.70;99.90;;;;;;5039706;28;20205;-54
2021/12/07 08:09:30;;;;;;;14.57;4.40;;;3.90;99.90;;;;;;5036968;28;20224;-54
2021/12/07 08:11:57;;;;;;;10.37;4.57;;;3.70;99.90;;;;;;5038303;28;20204;-54
2021/12/07 08:14:24;;;;;;;17.17;4.73;;;3.70;99.90;;;;;;5039120;28;20207;-53
2021/12/07 08:16:51;;;;;;;14.67;5.43;;;3.80;99.90;;;;;;5037258;28;20715;-55
2021/12/07 08:19:18;;;;;;;9.97;4.70;;;4.00;99.90;;;;;;5038892;28;20207;-53
2021/12/07 08:21:44;;;;;;;17.07;5.00;;;3.80;99.90;;;;;;5034391;28;20252;-53
2021/12/07 08:24:11;;;;;;;8.67;4.37;;;3.80;99.90;;;;;;5036441;28;20197;-54
2021/12/07 08:26:38;;;;;;;19.83;4.93;;;3.90;99.90;;;;;;5035613;28;20207;-54
2021/12/07 08:29:05;;;;;;;13.27;4.57;;;3.90;99.90;;;;;;5034635;28;20733;-52
2021/12/07 08:31:33;;;;;;;13.63;5.03;;;3.80;99.90;;;;;;5036802;28;20210;-54
2021/12/07 08:34:00;;;;;;;13.17;4.60;;;3.50;99.90;;;;;;5035523;28;20679;-53
2021/12/07 08:36:28;;;;;;;13.77;4.50;;;3.70;99.90;;;;;;5035450;28;20204;-53
2021/12/07 08:38:56;;;;;;;13.80;4.57;;;3.60;99.90;;;;;;5037337;28;20265;-53
2021/12/07 08:41:23;;;;;;;13.40;4.07;;;3.50;99.90;;;;;;5037092;28;20725;-52
2021/12/07 08:43:51;;;;;;;8.90;3.80;;;3.40;99.90;;;;;;5036593;28;20215;-53
2021/12/07 08:46:18;;;;;;;10.80;4.13;;;3.30;99.90;;;;;;5037877;28;20202;-52
2021/12/07 08:48:45;;;;;;;15.27;4.80;;;3.40;99.90;;;;;;5037223;28;20257;-53
2021/12/07 08:51:14;;;;;;;15.00;5.00;;;3.30;99.90;;;;;;5037369;28;20797;-53
2021/12/07 08:53:49;;;;;;;15.57;4.37;;;3.30;99.90;;;;;;5034657;28;20953;-53
2021/12/07 09:01:48;;;;;;;19.00;4.73;;;3.30;99.90;;;;;;5034827;28;20195;-52
2021/12/07 09:04:17;;;;;;;11.87;4.23;;;3.30;99.90;;;;;;5034912;28;20599;-53
2021/12/07 09:06:49;;;;;;;17.03;4.50;;;3.40;99.90;;;;;;5034022;28;20623;-53
2021/12/07 09:09:16;;;;;;;16.77;4.77;;;3.40;99.90;;;;;;5036087;28;20705;-55
2021/12/07 09:11:44;;;;;;;13.30;3.80;;;3.50;99.90;;;;;;5029487;28;20199;-53
2021/12/07 09:14:14;;;;;;;15.40;4.20;;;3.40;99.90;;;;;;5033173;28;20287;-53
2021/12/07 09:16:42;;;;;;;11.27;4.30;;;3.50;99.90;;;;;;5036147;28;20251;-53
2021/12/07 09:19:10;;;;;;;10.20;4.53;;;3.60;99.90;;;;;;5035109;28;20759;-53
2021/12/07 09:21:37;;;;;;;8.83;3.73;;;3.70;99.90;;;;;;5014414;28;20239;-53
2021/12/07 09:24:05;;;;;;;12.67;5.20;;;3.80;99.90;;;;;;5036515;28;20207;-53
2021/12/07 09:26:32;;;;;;;11.67;4.10;;;3.80;99.90;;;;;;5037676;28;20199;-54
2021/12/07 09:29:00;;;;;;;9.30;4.17;;;3.90;99.90;;;;;;5020652;28;21304;-53
2021/12/07 09:31:27;;;;;;;11.90;3.70;;;4.10;99.90;;;;;;5036432;28;20277;-52
2021/12/07 09:33:55;;;;;;;15.40;3.93;;;4.40;99.90;;;;;;5034727;28;20192;-53
2021/12/07 09:36:22;;;;;;;10.27;3.33;;;4.10;99.90;;;;;;5031395;28;20210;-53
2021/12/07 09:38:54;;;;;;;10.20;4.57;;;4.20;99.90;;;;;;5037284;28;20214;-52
2021/12/07 09:41:21;;;;;;;10.30;3.53;;;4.20;99.90;;;;;;5019428;28;20196;-52
2021/12/07 09:43:51;;;;;;;11.17;4.20;;;4.30;99.90;;;;;;5031334;28;20310;-52
2021/12/07 09:46:18;;;;;;;12.57;3.87;;;4.30;99.90;;;;;;5028606;28;20727;-53
2021/12/07 09:48:46;;;;;;;8.40;3.73;;;4.30;99.90;;;;;;5031847;28;20212;-52
2021/12/07 09:51:17;;;;;;;5.60;2.83;;;4.30;99.90;;;;;;5034872;28;20210;-53
2021/12/07 09:53:46;;;;;;;8.93;3.20;;;4.50;99.90;;;;;;5035382;28;20240;-52
2021/12/07 09:56:13;;;;;;;10.27;4.00;;;4.50;99.90;;;;;;5038336;28;20204;-53
2021/12/07 09:58:41;;;;;;;10.37;3.23;;;4.80;99.90;;;;;;5035760;28;20232;-53
2021/12/07 10:01:09;;;;;;;10.37;3.47;;;4.80;99.90;;;;;;5036130;28;20199;-52
2021/12/07 10:03:38;;;;;;;7.83;4.17;;;4.90;99.90;;;;;;5033739;28;21064;-52
2021/12/07 10:06:07;;;;;;;8.20;3.20;;;4.90;99.90;;;;;;5019034;28;20574;-54
2021/12/07 10:08:35;;;;;;;7.27;3.27;;;5.00;99.90;;;;;;5035293;28;20227;-53
2021/12/07 10:11:04;;;;;;;3.77;3.07;;;5.20;99.90;;;;;;5036326;28;20311;-52
2021/12/07 10:13:32;;;;;;;11.97;3.23;;;5.10;99.90;;;;;;5034261;28;20204;-53
2021/12/07 10:16:03;;;;;;;7.83;2.83;;;5.00;99.90;;;;;;5035447;28;20224;-53
2021/12/07 10:18:32;;;;;;;8.83;2.80;;;5.10;99.90;;;;;;5035577;28;20297;-51
2021/12/07 10:21:17;;;;;;;9.13;2.50;;;5.10;99.90;;;;;;5035795;28;20236;-53
2021/12/07 10:23:51;;;;;;;6.97;2.40;;;5.10;99.90;;;;;;5036574;28;20920;-53
2021/12/07 10:26:23;;;;;;;8.20;3.17;;;5.20;99.90;;;;;;5018536;28;20197;-52
2021/12/07 10:28:59;;;;;;;10.07;2.93;;;5.20;99.90;;;;;;5033495;28;20211;-53
2021/12/07 10:31:34;;;;;;;9.33;2.80;;;5.50;99.90;;;;;;5033093;28;20258;-52
2021/12/07 10:34:22;;;;;;;9.50;3.10;;;5.50;99.90;;;;;;5040527;28;20200;-53
2021/12/07 10:37:02;;;;;;;9.20;2.77;;;5.40;99.90;;;;;;5037292;28;20270;-54
2021/12/07 10:39:35;;;;;;;6.07;2.43;;;5.40;99.90;;;;;;5039949;28;20679;-54
2021/12/07 10:42:15;;;;;;;6.83;2.50;;;5.50;99.90;;;;;;5040968;28;20279;-56
2021/12/07 10:45:09;;;;;;;14.93;2.83;;;5.50;99.90;;;;;;5038770;28;20192;-53
2021/12/07 10:47:37;;;;;;;6.60;2.37;;;5.60;99.90;;;;;;5039681;28;20240;-53
2021/12/07 10:50:09;;;;;;;6.73;2.77;;;5.70;99.90;;;;;;5039233;28;20232;-51
2021/12/07 10:52:40;;;;;;;6.73;3.00;;;5.60;99.90;;;;;;5034140;28;20250;-52
2021/12/07 10:55:23;;;;;;;12.97;2.30;;;5.60;99.90;;;;;;5031710;28;20216;-52
2021/12/07 10:57:56;;;;;;;9.80;2.77;;;5.80;99.90;;;;;;5037226;28;20288;-54
2021/12/07 11:00:36;;;;;;;5.50;2.63;;;6.00;99.90;;;;;;5038240;28;20843;-54
2021/12/07 11:03:11;;;;;;;7.63;2.50;;;6.20;99.90;;;;;;5038472;28;20201;-54
2021/12/07 11:05:39;;;;;;;8.20;2.60;;;6.30;99.90;;;;;;5039854;28;20224;-54
2021/12/07 11:08:08;;;;;;;11.57;2.67;;;6.20;99.90;;;;;;5034547;28;20204;-52
2021/12/07 11:10:39;;;;;;;7.30;2.70;;;6.20;99.90;;;;;;5038972;28;20627;-53
2021/12/07 11:13:35;;;;;;;8.87;2.87;;;6.30;99.90;;;;;;5036621;28;20593;-50
2021/12/07 11:16:09;;;;;;;8.30;3.10;;;6.20;99.90;;;;;;5039046;28;21077;-54
2021/12/07 11:18:40;;;;;;;10.27;2.77;;;6.00;99.90;;;;;;5038924;28;20206;-52
2021/12/07 11:21:15;;;;;;;7.83;2.57;;;6.10;99.90;;;;;;5021948;28;20294;-52
2021/12/07 11:23:45;;;;;;;7.73;2.40;;;6.10;99.90;;;;;;5037561;28;20225;-52
2021/12/07 11:31:49;;;;;;;5.57;2.83;;;6.30;99.90;;;;;;5037040;28;20210;-54
2021/12/07 11:34:29;;;;;;;8.47;2.40;;;6.50;99.90;;;;;;5038162;28;20689;-53
2021/12/07 11:37:08;;;;;;;5.57;2.90;;;6.70;99.90;;;;;;5039810;28;20769;-53
2021/12/07 11:39:37;;;;;;;7.77;2.37;;;7.00;99.90;;;;;;5039468;28;20360;-53
2021/12/07 11:42:22;;;;;;;8.87;2.33;;;7.00;99.90;;;;;;5038892;28;20550;-54
2021/12/07 11:45:01;;;;;;;11.73;2.33;;;7.20;99.90;;;;;;5034185;28;20285;-53
2021/12/07 11:47:33;;;;;;;4.17;2.20;;;7.30;99.90;;;;;;5038363;28;20680;-52
2021/12/07 11:50:10;;;;;;;4.30;2.53;;;7.20;99.90;;;;;;5037063;28;21063;-51
2021/12/07 11:52:37;;;;;;;8.80;2.57;;;7.20;99.90;;;;;;5039108;28;20258;-51
2021/12/07 11:55:06;;;;;;;9.00;2.93;;;7.30;99.90;;;;;;5039335;28;20207;-52
2021/12/07 11:57:32;;;;;;;5.87;2.23;;;7.60;99.90;;;;;;5037228;28;20258;-53
2021/12/07 11:59:59;;;;;;;8.27;2.57;;;7.40;99.90;;;;;;5033007;28;20230;-52
2021/12/07 12:02:26;;;;;;;8.40;2.40;;;7.30;99.90;;;;;;5034667;28;20221;-53
2021/12/07 12:04:54;;;;;;;6.03;2.77;;;7.10;99.90;;;;;;5036177;28;20215;-50
2021/12/07 12:07:21;;;;;;;7.33;2.37;;;7.00;99.90;;;;;;5033305;28;20679;-52
2021/12/07 12:09:51;;;;;;;9.27;2.63;;;6.80;99.90;;;;;;5038318;28;20265;-51
2021/12/07 12:12:29;;;;;;;7.63;2.50;;;7.00;99.90;;;;;;5037674;28;20208;-54
2021/12/07 12:15:17;;;;;;;11.10;2.50;;;6.80;99.90;;;;;;5037710;28;20213;-54
2021/12/07 12:18:13;;;;;;;8.17;2.80;;;6.90;99.90;;;;;;5035027;28;20665;-52
2021/12/07 12:21:00;;;;;;;8.73;2.90;;;7.00;99.90;;;;;;5037504;28;20207;-54
2021/12/07 12:23:50;;;;;;;9.73;2.90;;;7.20;99.90;;;;;;5036807;28;21107;-51
2021/12/07 12:26:23;;;;;;;5.30;2.40;;;7.10;99.90;;;;;;5037605;28;20656;-51
2021/12/07 12:28:51;;;;;;;6.53;2.47;;;6.80;99.90;;;;;;5031510;28;20208;-52
2021/12/07 12:31:39;;;;;;;6.27;2.40;;;6.70;99.90;;;;;;5032064;28;20298;-53
2021/12/07 12:34:21;;;;;;;11.07;2.50;;;6.70;99.90;;;;;;5023799;28;20212;-53
2021/12/07 12:36:55;;;;;;;10.37;2.17;;;6.80;99.90;;;;;;5014230;28;20315;-51
2021/12/07 12:39:41;;;;;;;12.03;2.83;;;6.90;99.90;;;;;;5032767;28;20232;-52
2021/12/07 12:42:08;;;;;;;5.80;2.20;;;6.90;99.90;;;;;;5035019;28;20329;-51
2021/12/07 12:44:37;;;;;;;4.23;2.17;;;6.90;99.90;;;;;;5034551;28;20246;-53
2021/12/07 12:47:05;;;;;;;6.00;2.53;;;6.90;99.90;;;;;;5029585;28;20202;-51
2021/12/07 12:49:43;;;;;;;7.33;2.27;;;6.90;99.90;;;;;;5035917;28;20645;-53
2021/12/07 12:52:10;;;;;;;7.30;2.40;;;6.60;99.90;;;;;;5037108;28;20614;-54
2021/12/07 12:54:44;;;;;;;8.83;2.50;;;6.80;99.90;;;;;;5030660;28;20331;-52
2021/12/07 12:57:17;;;;;;;9.30;2.53;;;6.80;99.90;;;;;;5028573;28;20753;-53
2021/12/07 12:59:47;;;;;;;9.47;3.07;;;6.80;99.90;;;;;;5028988;28;20296;-52
2021/12/07 13:02:14;;;;;;;8.83;2.90;;;6.90;99.90;;;;;;5030409;28;20720;-52
2021/12/07 13:04:42;;;;;;;6.97;2.60;;;7.10;99.90;;;;;;5025890;28;20210;-52
2021/12/07 13:07:23;;;;;;;7.23;2.30;;;7.00;99.90;;;;;;5033982;28;20463;-51
2021/12/07 13:09:56;;;;;;;9.83;2.70;;;7.00;99.90;;;;;;5034684;28;20207;-51
2021/12/07 13:12:31;;;;;;;7.70;2.97;;;6.90;99.90;;;;;;5035801;28;20253;-51
2021/12/07 13:15:02;;;;;;;6.17;2.93;;;6.80;99.90;;;;;;5016809;28;20215;-52
2021/12/07 13:17:38;;;;;;;7.47;2.70;;;7.00;99.90;;;;;;5034123;28;20609;-53
2021/12/07 13:20:36;;;;;;;8.10;2.80;;;7.20;99.90;;;;;;5035982;28;20222;-54
2021/12/07 13:23:10;;;;;;;10.07;2.70;;;7.00;99.90;;;;;;5027369;28;20269;-51
2021/12/07 13:25:48;;;;;;;10.43;2.70;;;6.80;99.90;;;;;;5035665;28;20205;-53
2021/12/07 13:28:33;;;;;;;7.60;2.50;;;6.70;99.90;;;;;;5037254;28;20208;-53
2021/12/07 13:31:15;;;;;;;3.53;1.80;;;6.90;99.90;;;;;;5030520;28;20591;-52
2021/12/07 13:33:55;;;;;;;8.20;2.20;;;6.70;99.90;;;;;;5031868;28;20271;-54
2021/12/07 13:36:50;;;;;;;7.37;2.10;;;6.80;99.90;;;;;;5034706;28;20271;-52
2021/12/07 13:39:18;;;;;;;6.67;2.07;;;6.80;99.90;;;;;;5031999;28;20358;-52
2021/12/07 13:42:19;;;;;;;10.17;2.83;;;6.80;99.90;;;;;;5036267;28;20621;-53
2021/12/07 13:45:03;;;;;;;7.57;2.40;;;6.80;99.90;;;;;;5034781;28;20291;-52
2021/12/07 13:47:33;;;;;;;9.57;1.77;;;6.80;99.90;;;;;;5033719;28;20297;-53
2021/12/07 13:50:02;;;;;;;9.43;1.97;;;6.50;99.90;;;;;;5038186;28;20622;-53
2021/12/07 13:52:35;;;;;;;6.27;1.70;;;6.40;99.90;;;;;;5032493;28;20680;-55
2021/12/07 13:55:09;;;;;;;6.87;1.77;;;6.70;99.90;;;;;;5037442;28;20921;-52
2021/12/07 13:57:39;;;;;;;9.77;2.03;;;6.70;99.90;;;;;;5034255;28;20276;-51
2021/12/07 14:00:11;;;;;;;7.03;1.90;;;6.60;99.90;;;;;;5034055;28;20249;-50
2021/12/07 14:02:46;;;;;;;6.27;1.60;;;6.60;99.90;;;;;;5037439;28;20193;-53
2021/12/07 14:05:18;;;;;;;4.30;1.70;;;6.50;99.90;;;;;;5034558;28;20269;-52
2021/12/07 14:07:47;;;;;;;5.47;1.90;;;6.50;99.90;;;;;;5031763;28;20650;-51
2021/12/07 14:10:17;;;;;;;10.63;2.00;;;6.30;99.90;;;;;;5037528;28;20669;-53
2021/12/07 14:12:45;;;;;;;6.00;1.80;;;6.40;99.90;;;;;;5022477;28;20208;-53
2021/12/07 14:15:27;;;;;;;8.37;1.73;;;6.50;99.90;;;;;;5037695;28;20237;-53
2021/12/07 14:17:59;;;;;;;5.97;1.77;;;6.50;99.90;;;;;;5038917;28;21161;-51
2021/12/07 14:20:58;;;;;;;5.80;1.70;;;6.30;99.90;;;;;;5037226;28;20318;-53
2021/12/07 14:23:46;;;;;;;7.30;1.93;;;6.30;99.90;;;;;;5017993;28;20209;-54
2021/12/07 14:26:23;;;;;;;4.73;1.30;;;6.30;99.90;;;;;;5033672;28;20199;-61
2021/12/07 14:29:02;;;;;;;3.30;1.20;;;6.20;99.90;;;;;;5036420;28;20210;-60
2021/12/07 14:31:51;;;;;;;7.90;1.67;;;6.20;99.90;;;;;;5036173;28;20206;-60
2021/12/07 14:34:24;;;;;;;9.93;1.53;;;6.30;99.90;;;;;;5032622;28;20206;-61
2021/12/07 14:36:53;;;;;;;6.73;1.70;;;6.50;99.90;;;;;;5012237;28;20301;-62
2021/12/07 14:39:42;;;;;;;5.57;1.87;;;6.40;99.90;;;;;;5020090;28;20287;-61
2021/12/07 14:42:18;;;;;;;5.33;1.50;;;6.40;99.90;;;;;;5029432;28;20275;-59
2021/12/07 14:44:51;;;;;;;5.50;1.60;;;6.30;99.90;;;;;;5014253;28;20210;-57
2021/12/07 14:47:19;;;;;;;6.73;1.40;;;6.20;99.90;;;;;;5031092;28;20763;-58
2021/12/07 14:49:48;;;;;;;7.40;1.70;;;6.10;99.90;;;;;;5029924;28;20209;-54
2021/12/07 14:52:19;;;;;;;8.50;1.60;;;6.10;99.90;;;;;;5025980;28;20737;-52
2021/12/07 14:54:48;;;;;;;3.60;1.03;;;6.10;99.90;;;;;;5034377;28;20220;-54
2021/12/07 14:57:20;;;;;;;7.07;1.40;;;6.10;99.90;;;;;;5029912;28;20229;-54
2021/12/07 14:59:52;;;;;;;7.47;1.60;;;6.20;99.90;;;;;;5038721;28;20212;-52
2021/12/07 15:02:20;;;;;;;15.13;1.87;;;6.00;99.90;;;;;;5037940;28;20719;-53